createdAt,value
2022-10-31T00:00:56.146Z,20.31
2022-10-31T00:03:23.597Z,20.69
2022-10-31T00:05:51.037Z,20.71
2022-10-31T00:08:18.162Z,20.69
2022-10-31T00:10:45.917Z,20.70
2022-10-31T00:13:14.198Z,20.57
2022-10-31T00:15:41.741Z,20.92
2022-10-31T00:18:09.437Z,20.91
2022-10-31T00:20:36.698Z,21.07
2022-10-31T00:23:04.157Z,20.82
2022-10-31T00:25:34.099Z,20.11
2022-10-31T00:28:01.519Z,20.39
2022-10-31T00:30:29.467Z,19.64
2022-10-31T00:32:57.133Z,20.11
2022-10-31T00:35:24.484Z,20.32
2022-10-31T00:37:52.865Z,20.38
2022-10-31T00:40:20.609Z,20.69
2022-10-31T00:42:47.753Z,20.32
2022-10-31T00:45:15.006Z,19.97
2022-10-31T00:47:42.418Z,20.30
2022-10-31T00:50:09.636Z,20.50
2022-10-31T00:52:38.507Z,19.88
2022-10-31T00:55:05.985Z,20.35
2022-10-31T00:57:33.123Z,20.39
2022-10-31T01:00:00.315Z,19.78
2022-10-31T01:02:29.377Z,20.61
2022-10-31T01:04:56.654Z,20.72
2022-10-31T01:07:23.787Z,20.61
2022-10-31T01:09:51.226Z,20.51
2022-10-31T01:12:19.465Z,20.63
2022-10-31T01:14:46.720Z,20.70
2022-10-31T01:17:14.538Z,20.79
2022-10-31T01:19:41.691Z,20.58
2022-10-31T01:22:08.827Z,20.71
2022-10-31T01:24:36.221Z,20.28
2022-10-31T01:27:03.532Z,19.43
2022-10-31T01:29:32.696Z,20.42
2022-10-31T01:32:00.192Z,20.71
2022-10-31T01:34:27.329Z,21.05
2022-10-31T01:36:55.211Z,20.85
2022-10-31T01:39:23.242Z,20.89
2022-10-31T01:41:51.435Z,20.64
2022-10-31T01:44:18.575Z,20.88
2022-10-31T01:47:04.953Z,21.00
2022-10-31T01:49:33.671Z,20.78
2022-10-31T01:52:16.505Z,20.85
2022-10-31T01:54:46.381Z,21.05
2022-10-31T01:57:13.916Z,21.07
2022-10-31T01:59:41.806Z,19.57
2022-10-31T02:02:09.181Z,19.35
2022-10-31T02:04:36.706Z,20.01
2022-10-31T02:07:08.795Z,19.72
2022-10-31T02:09:35.978Z,19.92
2022-10-31T02:12:03.522Z,20.13
2022-10-31T02:14:30.765Z,20.29
2022-10-31T02:16:58.416Z,20.12
2022-10-31T02:19:28.768Z,20.05
2022-10-31T02:22:14.658Z,19.74
2022-10-31T02:24:52.037Z,20.05
2022-10-31T02:27:34.743Z,20.06
2022-10-31T02:30:12.554Z,19.98
2022-10-31T02:33:01.201Z,19.29
2022-10-31T02:35:35.573Z,19.59
2022-10-31T02:38:20.984Z,19.94
2022-10-31T02:40:49.597Z,20.14
2022-10-31T02:43:21.377Z,20.20
2022-10-31T02:46:06.903Z,20.39
2022-10-31T02:48:36.240Z,20.45
2022-10-31T02:51:03.985Z,19.79
2022-10-31T02:53:35.070Z,18.90
2022-10-31T02:56:07.169Z,19.89
2022-10-31T02:58:35.811Z,19.86
2022-10-31T03:01:22.290Z,19.97
2022-10-31T03:03:53.320Z,19.59
2022-10-31T03:06:25.559Z,19.28
2022-10-31T03:08:58.106Z,19.39
2022-10-31T03:11:25.499Z,19.62
2022-10-31T03:13:55.718Z,19.72
2022-10-31T03:16:23.462Z,18.80
2022-10-31T03:18:51.720Z,19.36
2022-10-31T03:21:23.769Z,19.49
2022-10-31T03:23:52.679Z,19.79
2022-10-31T03:26:20.678Z,19.80
2022-10-31T03:28:50.602Z,19.63
2022-10-31T03:31:18.041Z,20.02
2022-10-31T03:33:45.577Z,19.19
2022-10-31T03:36:13.095Z,19.76
2022-10-31T03:38:40.842Z,19.71
2022-10-31T03:41:08.895Z,20.07
2022-10-31T03:43:37.697Z,20.07
2022-10-31T03:46:04.868Z,20.18
2022-10-31T03:48:32.755Z,20.02
2022-10-31T03:50:59.877Z,19.37
2022-10-31T03:53:48.561Z,19.50
2022-10-31T03:56:23.735Z,20.10
2022-10-31T03:58:56.774Z,20.08
2022-10-31T04:01:24.354Z,20.45
2022-10-31T04:03:51.853Z,19.84
2022-10-31T04:06:19.233Z,18.60
2022-10-31T04:08:47.853Z,19.14
2022-10-31T04:11:15.505Z,19.29
2022-10-31T04:13:42.898Z,19.74
2022-10-31T04:16:14.176Z,18.14
2022-10-31T04:18:44.606Z,18.76
2022-10-31T04:21:11.807Z,19.20
2022-10-31T04:23:38.955Z,18.65
2022-10-31T04:26:08.792Z,18.67
2022-10-31T04:28:35.916Z,17.56
2022-10-31T04:31:03.182Z,16.86
2022-10-31T04:33:30.751Z,17.83
2022-10-31T04:35:57.913Z,19.18
2022-10-31T04:38:25.085Z,19.50
2022-10-31T04:40:53.480Z,19.71
2022-10-31T04:43:21.315Z,19.37
2022-10-31T04:45:48.513Z,17.58
2022-10-31T04:48:15.969Z,18.63
2022-10-31T04:50:43.378Z,18.64
2022-10-31T04:53:10.541Z,18.94
2022-10-31T04:55:38.960Z,18.87
2022-10-31T04:58:09.599Z,19.36
2022-10-31T05:00:37.397Z,19.48
2022-10-31T05:03:05.440Z,19.85
2022-10-31T05:05:33.187Z,19.87
2022-10-31T05:08:00.549Z,20.17
2022-10-31T05:10:29.822Z,20.26
2022-10-31T05:13:00.066Z,20.16
2022-10-31T05:15:30.054Z,19.75
2022-10-31T05:18:01.232Z,20.13
2022-10-31T05:20:30.221Z,20.42
2022-10-31T05:22:59.171Z,20.10
2022-10-31T05:25:27.595Z,19.93
2022-10-31T05:27:55.808Z,20.15
2022-10-31T05:30:24.202Z,19.53
2022-10-31T05:32:51.644Z,19.18
2022-10-31T05:35:28.314Z,19.03
2022-10-31T05:37:58.680Z,19.25
2022-10-31T05:40:26.891Z,19.69
2022-10-31T05:42:54.875Z,18.98
2022-10-31T05:45:22.970Z,19.19
2022-10-31T05:47:58.300Z,19.24
2022-10-31T05:50:28.535Z,18.88
2022-10-31T05:53:01.090Z,18.79
2022-10-31T05:55:29.000Z,19.36
2022-10-31T05:57:58.068Z,19.15
2022-10-31T06:00:25.759Z,19.21
2022-10-31T06:03:18.860Z,18.48
2022-10-31T06:05:50.628Z,18.90
2022-10-31T06:08:21.414Z,19.48
2022-10-31T06:10:49.406Z,19.42
2022-10-31T06:13:18.326Z,18.75
2022-10-31T06:15:45.633Z,19.50
2022-10-31T06:18:13.426Z,19.38
2022-10-31T06:20:44.213Z,18.27
2022-10-31T06:23:11.630Z,18.96
2022-10-31T06:25:39.381Z,19.56
2022-10-31T06:28:06.558Z,20.01
2022-10-31T06:30:34.555Z,19.73
2022-10-31T06:33:03.183Z,19.83
2022-10-31T06:35:30.695Z,19.60
2022-10-31T06:37:57.974Z,19.71
2022-10-31T06:40:27.547Z,19.71
2022-10-31T06:43:00.696Z,19.77
2022-10-31T06:45:28.442Z,19.60
2022-10-31T06:50:50.541Z,18.54
2022-10-31T06:53:17.721Z,18.83
2022-10-31T06:55:44.907Z,18.44
2022-10-31T06:58:13.627Z,19.34
2022-10-31T07:00:41.081Z,19.09
2022-10-31T07:03:10.718Z,19.01
2022-10-31T07:05:38.598Z,18.41
2022-10-31T07:08:07.445Z,17.28
2022-10-31T07:10:39.107Z,18.36
2022-10-31T07:13:13.021Z,18.43
2022-10-31T07:15:41.124Z,18.77
2022-10-31T07:18:09.381Z,19.10
2022-10-31T07:20:36.583Z,19.22
2022-10-31T07:23:04.407Z,19.36
2022-10-31T07:25:32.513Z,19.35
2022-10-31T07:28:01.664Z,18.33
2022-10-31T07:30:29.231Z,19.18
2022-10-31T07:32:56.751Z,19.54
2022-10-31T07:35:26.442Z,17.69
2022-10-31T07:37:54.005Z,18.42
2022-10-31T07:40:21.795Z,18.30
2022-10-31T07:42:49.647Z,18.58
2022-10-31T07:45:28.647Z,18.81
2022-10-31T07:47:58.714Z,18.43
2022-10-31T07:50:35.328Z,18.23
2022-10-31T07:53:06.511Z,18.67
2022-10-31T07:55:35.067Z,18.23
2022-10-31T07:58:18.486Z,18.86
2022-10-31T08:00:46.132Z,19.24
2022-10-31T08:03:15.598Z,18.94
2022-10-31T08:05:46.953Z,18.92
2022-10-31T08:08:16.560Z,19.27
2022-10-31T08:10:44.102Z,19.08
2022-10-31T08:13:12.174Z,19.36
2022-10-31T08:15:42.451Z,19.44
2022-10-31T08:18:13.460Z,19.60
2022-10-31T08:20:41.619Z,20.15
2022-10-31T08:23:10.516Z,19.12
2022-10-31T08:25:39.310Z,19.19
2022-10-31T08:28:07.392Z,18.10
2022-10-31T08:30:35.508Z,17.54
2022-10-31T08:33:11.265Z,19.18
2022-10-31T08:35:43.164Z,19.26
2022-10-31T08:38:12.832Z,19.55
2022-10-31T08:40:40.641Z,19.62
2022-10-31T08:43:11.975Z,19.58
2022-10-31T08:45:39.525Z,19.28
2022-10-31T08:48:10.426Z,19.77
2022-10-31T08:50:38.070Z,19.81
2022-10-31T08:53:08.299Z,19.95
2022-10-31T08:55:36.427Z,19.25
2022-10-31T08:58:04.705Z,19.36
2022-10-31T09:00:35.544Z,19.01
2022-10-31T09:03:04.258Z,18.75
2022-10-31T09:05:32.703Z,17.57
2022-10-31T09:08:01.467Z,18.21
2022-10-31T09:10:29.226Z,17.27
2022-10-31T09:13:00.082Z,18.01
2022-10-31T09:15:30.104Z,18.98
2022-10-31T09:17:57.944Z,19.37
2022-10-31T09:20:27.197Z,19.45
2022-10-31T09:22:58.397Z,19.22
2022-10-31T09:25:25.717Z,17.52
2022-10-31T09:27:58.723Z,17.67
2022-10-31T09:30:27.076Z,18.18
2022-10-31T09:32:58.414Z,18.56
2022-10-31T09:35:26.177Z,17.80
2022-10-31T09:37:56.040Z,17.94
2022-10-31T09:40:24.225Z,18.24
2022-10-31T09:42:54.465Z,17.49
2022-10-31T09:45:40.489Z,18.18
2022-10-31T09:48:08.552Z,17.47
2022-10-31T09:50:43.844Z,18.65
2022-10-31T09:53:32.448Z,18.26
2022-10-31T09:55:59.912Z,18.34
2022-10-31T09:58:28.836Z,18.26
2022-10-31T10:00:57.451Z,18.22
2022-10-31T10:03:33.134Z,18.15
2022-10-31T10:06:16.570Z,17.71
2022-10-31T10:08:46.363Z,17.60
2022-10-31T10:11:27.045Z,18.40
2022-10-31T10:14:01.149Z,17.07
2022-10-31T10:16:41.154Z,18.07
2022-10-31T10:19:08.496Z,18.27
2022-10-31T10:21:43.419Z,17.87
2022-10-31T10:24:10.752Z,17.64
2022-10-31T10:26:38.797Z,17.59
2022-10-31T10:29:22.345Z,18.27
2022-10-31T10:31:49.956Z,18.09
2022-10-31T10:34:21.634Z,18.64
2022-10-31T10:36:51.456Z,19.07
2022-10-31T10:39:19.844Z,18.88
2022-10-31T10:42:08.652Z,18.77
2022-10-31T10:44:58.150Z,19.38
2022-10-31T10:47:38.078Z,19.03
2022-10-31T10:50:08.357Z,19.49
2022-10-31T10:52:54.019Z,19.07
2022-10-31T10:55:24.294Z,18.85
2022-10-31T10:57:56.812Z,18.92
2022-10-31T11:00:28.802Z,19.08
2022-10-31T11:02:55.979Z,18.12
2022-10-31T11:05:43.443Z,18.30
2022-10-31T11:08:10.606Z,18.71
2022-10-31T11:10:38.028Z,18.12
2022-10-31T11:13:19.727Z,18.46
2022-10-31T11:15:52.133Z,18.82
2022-10-31T11:20:58.042Z,18.64
2022-10-31T11:23:25.919Z,18.89
2022-10-31T11:26:03.249Z,18.91
2022-10-31T11:28:31.115Z,18.80
2022-10-31T11:31:08.518Z,19.10
2022-10-31T11:33:40.550Z,19.41
2022-10-31T11:36:17.556Z,18.61
2022-10-31T11:38:44.971Z,16.92
2022-10-31T11:41:12.037Z,17.88
2022-10-31T11:43:39.294Z,18.32
2022-10-31T11:46:10.770Z,18.69
2022-10-31T11:48:37.933Z,17.14
2022-10-31T11:51:05.615Z,18.61
2022-10-31T11:53:33.876Z,18.54
2022-10-31T11:56:02.306Z,18.86
2022-10-31T11:58:29.427Z,19.16
2022-10-31T12:00:57.298Z,19.38
2022-10-31T12:03:24.764Z,18.41
2022-10-31T12:05:56.707Z,18.10
2022-10-31T12:08:23.805Z,17.44
2022-10-31T12:10:54.335Z,17.96
2022-10-31T12:13:41.350Z,17.88
2022-10-31T12:16:17.862Z,17.68
2022-10-31T12:18:44.906Z,17.82
2022-10-31T12:21:29.088Z,18.21
2022-10-31T12:24:06.243Z,18.09
2022-10-31T12:26:33.586Z,17.80
2022-10-31T12:29:09.330Z,17.93
2022-10-31T12:31:43.089Z,18.56
2022-10-31T12:34:40.993Z,18.35
2022-10-31T12:37:12.916Z,17.81
2022-10-31T12:39:39.984Z,17.99
2022-10-31T12:42:13.244Z,18.57
2022-10-31T12:44:59.412Z,18.28
2022-10-31T12:47:33.921Z,17.34
2022-10-31T12:50:13.366Z,18.43
2022-10-31T12:52:44.337Z,17.90
2022-10-31T12:55:30.215Z,17.65
2022-10-31T12:58:04.783Z,18.60
2022-10-31T13:00:32.429Z,17.22
2022-10-31T13:03:11.235Z,17.63
2022-10-31T13:05:40.236Z,17.61
2022-10-31T13:08:10.723Z,17.46
2022-10-31T13:10:39.236Z,17.99
2022-10-31T13:13:11.283Z,18.03
2022-10-31T13:15:46.993Z,18.48
2022-10-31T13:18:16.413Z,18.57
2022-10-31T13:20:44.481Z,18.78
2022-10-31T13:23:48.577Z,17.78
2022-10-31T13:26:10.832Z,18.43
2022-10-31T13:28:41.356Z,19.03
2022-10-31T13:31:09.192Z,18.98
2022-10-31T13:33:40.431Z,19.45
2022-10-31T13:36:16.911Z,19.39
2022-10-31T13:38:48.221Z,19.32
2022-10-31T13:41:23.254Z,19.50
2022-10-31T13:43:56.628Z,19.60
2022-10-31T13:46:32.797Z,19.16
2022-10-31T13:49:00.406Z,18.83
2022-10-31T13:51:31.699Z,18.79
2022-10-31T13:54:02.930Z,18.47
2022-10-31T13:56:31.226Z,18.17
2022-10-31T13:59:02.452Z,18.07
2022-10-31T14:01:30.540Z,18.63
2022-10-31T14:04:13.003Z,18.59
2022-10-31T14:06:46.524Z,18.91
2022-10-31T14:09:18.964Z,19.28
2022-10-31T14:11:47.651Z,18.47
2022-10-31T14:14:15.001Z,18.35
2022-10-31T14:16:43.183Z,18.55
2022-10-31T14:19:19.979Z,18.26
2022-10-31T14:21:50.781Z,18.03
2022-10-31T14:24:24.640Z,17.42
2022-10-31T14:26:52.987Z,17.47
2022-10-31T14:29:22.215Z,18.09
2022-10-31T14:31:52.275Z,17.24
2022-10-31T14:34:20.306Z,17.81
2022-10-31T14:36:51.166Z,17.97
2022-10-31T14:39:19.312Z,18.68
2022-10-31T14:42:06.815Z,18.30
2022-10-31T14:44:46.290Z,17.85
2022-10-31T14:47:25.812Z,18.38
2022-10-31T14:50:08.082Z,17.66
2022-10-31T14:52:36.839Z,17.01
2022-10-31T14:55:04.051Z,17.75
2022-10-31T14:57:32.426Z,17.98
2022-10-31T15:00:06.127Z,18.24
2022-10-31T15:02:37.588Z,18.39
2022-10-31T15:05:08.945Z,18.84
2022-10-31T15:07:37.579Z,17.66
2022-10-31T15:10:07.004Z,17.51
2022-10-31T15:12:35.430Z,17.62
2022-10-31T15:15:16.121Z,17.68
2022-10-31T15:17:50.192Z,17.64
2022-10-31T15:20:22.028Z,18.38
2022-10-31T15:22:49.403Z,18.41
2022-10-31T15:25:21.083Z,18.32
2022-10-31T15:27:48.819Z,17.90
2022-10-31T15:30:19.513Z,17.19
2022-10-31T15:32:55.322Z,18.52
2022-10-31T15:35:26.809Z,18.57
2022-10-31T15:37:54.143Z,18.60
2022-10-31T15:40:22.564Z,18.59
2022-10-31T15:42:57.557Z,18.89
2022-10-31T15:45:25.355Z,17.54
2022-10-31T15:48:00.016Z,17.52
2022-10-31T15:50:33.508Z,18.03
2022-10-31T15:53:01.291Z,18.47
2022-10-31T15:55:29.365Z,18.57
2022-10-31T15:58:00.338Z,18.25
2022-10-31T16:00:35.865Z,18.38
2022-10-31T16:03:06.037Z,18.46
2022-10-31T16:05:37.490Z,17.38
2022-10-31T16:08:05.091Z,18.20
2022-10-31T16:10:33.988Z,18.48
2022-10-31T16:13:01.267Z,18.81
2022-10-31T16:15:28.890Z,18.26
2022-10-31T16:18:01.348Z,18.02
2022-10-31T16:20:29.820Z,18.11
2022-10-31T16:22:56.946Z,18.71
2022-10-31T16:25:26.639Z,18.58
2022-10-31T16:27:54.796Z,18.20
2022-10-31T16:30:36.869Z,18.90
2022-10-31T16:33:04.634Z,17.97
2022-10-31T16:35:36.041Z,17.43
2022-10-31T16:38:03.600Z,17.03
2022-10-31T16:40:30.919Z,17.18
2022-10-31T16:42:58.878Z,17.07
2022-10-31T16:45:27.249Z,17.44
2022-10-31T16:47:54.502Z,17.57
2022-10-31T16:50:23.103Z,17.73
2022-10-31T16:55:45.950Z,16.61
2022-10-31T16:58:17.680Z,17.05
2022-10-31T17:00:45.010Z,17.37
2022-10-31T17:03:12.218Z,16.86
2022-10-31T17:05:39.631Z,15.52
2022-10-31T17:08:06.834Z,16.69
2022-10-31T17:10:34.738Z,16.77
2022-10-31T17:13:03.872Z,16.29
2022-10-31T17:15:33.930Z,17.52
2022-10-31T17:18:01.770Z,16.21
2022-10-31T17:20:30.053Z,17.34
2022-10-31T17:22:57.623Z,17.59
2022-10-31T17:25:26.201Z,17.31
2022-10-31T17:27:53.411Z,17.67
2022-10-31T17:30:21.113Z,17.08
2022-10-31T17:32:48.751Z,17.00
2022-10-31T17:35:16.289Z,16.77
2022-10-31T17:37:43.976Z,17.22
2022-10-31T17:40:11.968Z,16.84
2022-10-31T17:42:39.155Z,16.81
2022-10-31T17:45:06.962Z,17.00
2022-10-31T17:47:34.909Z,17.13
2022-10-31T17:50:02.142Z,17.84
2022-10-31T17:52:29.594Z,17.86
2022-10-31T17:54:57.145Z,17.13
2022-10-31T17:57:24.369Z,17.44
2022-10-31T17:59:51.740Z,17.20
2022-10-31T18:02:19.383Z,16.31
2022-10-31T18:04:47.213Z,17.61
2022-10-31T18:07:21.003Z,17.81
2022-10-31T18:09:48.448Z,18.18
2022-10-31T18:12:15.952Z,18.62
2022-10-31T18:14:48.407Z,18.45
2022-10-31T18:17:16.215Z,18.07
2022-10-31T18:19:43.356Z,18.20
2022-10-31T18:22:10.541Z,16.91
2022-10-31T18:24:38.043Z,16.82
2022-10-31T18:27:05.384Z,16.35
2022-10-31T18:29:33.046Z,15.34
2022-10-31T18:32:03.221Z,16.14
2022-10-31T18:34:32.724Z,15.88
2022-10-31T18:36:59.989Z,15.90
2022-10-31T18:39:27.730Z,16.36
2022-10-31T18:41:54.977Z,15.11
2022-10-31T18:44:22.659Z,15.81
2022-10-31T18:46:50.063Z,16.96
2022-10-31T18:49:22.480Z,16.58
2022-10-31T18:51:50.376Z,16.77
2022-10-31T18:54:17.687Z,16.47
2022-10-31T18:56:45.086Z,15.94
2022-10-31T18:59:12.862Z,15.82
2022-10-31T19:01:40.636Z,15.78
2022-10-31T19:04:08.380Z,16.58
2022-10-31T19:06:35.821Z,15.92
2022-10-31T19:09:04.954Z,16.04
2022-10-31T19:11:32.796Z,16.50
2022-10-31T19:14:00.286Z,15.70
2022-10-31T19:16:27.981Z,16.45
2022-10-31T19:19:00.122Z,16.99
2022-10-31T19:21:27.930Z,17.14
2022-10-31T19:23:56.492Z,17.21
2022-10-31T19:26:25.306Z,17.26
2022-10-31T19:28:52.925Z,16.82
2022-10-31T19:31:20.332Z,15.34
2022-10-31T19:33:48.043Z,16.47
2022-10-31T19:36:16.573Z,16.44
2022-10-31T19:38:44.186Z,15.73
2022-10-31T19:41:12.519Z,15.46
2022-10-31T19:43:40.260Z,15.88
2022-10-31T19:46:09.081Z,16.04
2022-10-31T19:48:39.119Z,16.30
2022-10-31T19:51:07.920Z,16.24
2022-10-31T19:53:35.721Z,16.24
2022-10-31T19:56:03.409Z,16.61
2022-10-31T19:58:32.000Z,17.40
2022-10-31T20:03:33.747Z,16.94
2022-10-31T20:06:04.957Z,17.30
2022-10-31T20:08:37.051Z,17.85
2022-10-31T20:11:06.824Z,16.48
2022-10-31T20:13:34.789Z,17.09
2022-10-31T20:16:03.759Z,16.38
2022-10-31T20:18:31.425Z,17.10
2022-10-31T20:21:06.081Z,17.41
2022-10-31T20:23:33.704Z,16.82
2022-10-31T20:26:01.129Z,17.09
2022-10-31T20:28:29.854Z,16.98
2022-10-31T20:30:57.159Z,17.11
2022-10-31T20:33:24.534Z,16.65
2022-10-31T20:35:51.725Z,15.93
2022-10-31T20:38:18.968Z,15.99
2022-10-31T20:40:46.373Z,16.44
2022-10-31T20:43:14.930Z,16.97
2022-10-31T20:45:42.616Z,16.77
2022-10-31T20:48:10.072Z,16.34
2022-10-31T20:50:38.174Z,15.87
2022-10-31T20:53:07.373Z,15.57
2022-10-31T20:55:34.841Z,16.14
2022-10-31T20:58:01.999Z,15.89
2022-10-31T21:00:29.388Z,16.33
2022-10-31T21:02:56.858Z,16.47
2022-10-31T21:05:24.417Z,15.62
2022-10-31T21:10:24.264Z,15.49
2022-10-31T21:12:51.369Z,15.54
2022-10-31T21:15:18.813Z,15.90
2022-10-31T21:17:46.232Z,16.10
2022-10-31T21:20:14.097Z,16.48
2022-10-31T21:22:41.281Z,16.88
2022-10-31T21:25:08.987Z,16.41
2022-10-31T21:27:36.560Z,16.88
2022-10-31T21:30:22.484Z,17.42
2022-10-31T21:32:49.883Z,17.43
2022-10-31T21:35:16.985Z,17.34
2022-10-31T21:37:44.184Z,16.29
2022-10-31T21:40:11.730Z,17.23
2022-10-31T21:42:38.875Z,16.95
2022-10-31T21:45:06.071Z,16.93
2022-10-31T21:47:33.437Z,17.20
2022-10-31T21:50:00.539Z,16.68
2022-10-31T21:52:27.663Z,15.39
2022-10-31T21:54:55.024Z,16.32
2022-10-31T21:59:54.419Z,16.32
2022-10-31T22:02:21.509Z,16.68
2022-10-31T22:04:50.974Z,15.73
2022-10-31T22:07:19.600Z,17.02
2022-10-31T22:09:47.422Z,17.25
2022-10-31T22:12:14.987Z,17.78
2022-10-31T22:17:10.174Z,16.96
2022-10-31T22:19:37.537Z,17.41
2022-10-31T22:22:04.646Z,17.09
2022-10-31T22:24:31.771Z,17.58
2022-10-31T22:26:59.929Z,17.44
2022-10-31T22:29:28.801Z,17.24
2022-10-31T22:31:59.538Z,16.75
2022-10-31T22:34:28.920Z,17.29
2022-10-31T22:37:01.487Z,17.26
2022-10-31T22:39:32.512Z,16.45
2022-10-31T22:41:59.616Z,17.02
2022-10-31T22:44:26.727Z,17.30
2022-10-31T22:46:54.079Z,16.89
2022-10-31T22:49:21.191Z,16.86
2022-10-31T22:51:49.782Z,16.95
2022-10-31T22:54:17.774Z,16.57
2022-10-31T22:56:45.051Z,16.90
2022-10-31T22:59:15.885Z,16.67
2022-10-31T23:01:45.619Z,16.47
2022-10-31T23:04:13.561Z,17.23
2022-10-31T23:06:40.719Z,17.69
2022-10-31T23:09:08.424Z,17.21
2022-10-31T23:11:39.442Z,17.52
2022-10-31T23:14:10.642Z,17.94
2022-10-31T23:16:41.274Z,17.45
2022-10-31T23:19:08.902Z,17.62
2022-10-31T23:21:55.632Z,17.18
2022-10-31T23:24:26.008Z,16.99
2022-10-31T23:27:06.039Z,17.18
2022-10-31T23:29:34.137Z,17.45
2022-10-31T23:32:01.351Z,17.41
2022-10-31T23:34:28.509Z,17.62
2022-10-31T23:36:56.079Z,16.93
2022-10-31T23:39:25.086Z,17.30
2022-10-31T23:41:52.649Z,16.97
2022-10-31T23:44:20.008Z,16.42
2022-10-31T23:46:47.132Z,16.68
2022-10-31T23:49:14.243Z,16.32
2022-10-31T23:51:41.596Z,16.83
2022-10-31T23:54:08.950Z,17.18
2022-10-31T23:56:36.127Z,16.74
2022-10-31T23:59:03.770Z,17.26
